sensor_id;sensor_type;location;lat;lon;timestamp;pressure;altitude;pressure_sealevel;temperature;humidity
37368;BME280;23240;43.210;27.910;2022-11-15T00:00:21;101947.19;;;8.75;100.00
37368;BME280;23240;43.210;27.910;2022-11-15T00:02:46;101943.81;;;8.72;100.00
37368;BME280;23240;43.210;27.910;2022-11-15T00:05:12;101942.94;;;8.71;100.00
37368;BME280;23240;43.210;27.910;2022-11-15T00:07:37;101944.56;;;8.74;100.00
37368;BME280;23240;43.210;27.910;2022-11-15T00:10:03;101937.59;;;8.71;100.00
37368;BME280;23240;43.210;27.910;2022-11-15T00:12:29;101946.56;;;8.70;100.00
37368;BME280;23240;43.210;27.910;2022-11-15T00:14:54;101938.38;;;8.73;100.00
37368;BME280;23240;43.210;27.910;2022-11-15T00:17:20;101936.81;;;8.69;100.00
37368;BME280;23240;43.210;27.910;2022-11-15T00:19:45;101936.75;;;8.71;100.00
37368;BME280;23240;43.210;27.910;2022-11-15T00:22:11;101933.03;;;8.73;100.00
37368;BME280;23240;43.210;27.910;2022-11-15T00:24:36;101924.06;;;8.74;100.00
37368;BME280;23240;43.210;27.910;2022-11-15T00:27:02;101930.25;;;8.75;100.00
37368;BME280;23240;43.210;27.910;2022-11-15T00:29:27;101925.72;;;8.77;100.00
37368;BME280;23240;43.210;27.910;2022-11-15T00:31:53;101929.34;;;8.76;100.00
37368;BME280;23240;43.210;27.910;2022-11-15T00:34:18;101932.41;;;8.68;100.00
37368;BME280;23240;43.210;27.910;2022-11-15T00:36:44;101929.50;;;8.73;100.00
37368;BME280;23240;43.210;27.910;2022-11-15T00:39:09;101919.66;;;8.73;100.00
37368;BME280;23240;43.210;27.910;2022-11-15T00:41:35;101920.88;;;8.84;100.00
37368;BME280;23240;43.210;27.910;2022-11-15T00:44:00;101913.97;;;8.80;100.00
37368;BME280;23240;43.210;27.910;2022-11-15T00:46:26;101914.59;;;8.85;100.00
37368;BME280;23240;43.210;27.910;2022-11-15T00:48:51;101910.44;;;8.79;100.00
37368;BME280;23240;43.210;27.910;2022-11-15T00:51:16;101913.63;;;8.70;100.00
37368;BME280;23240;43.210;27.910;2022-11-15T00:53:42;101920.09;;;8.66;100.00
37368;BME280;23240;43.210;27.910;2022-11-15T00:56:07;101917.69;;;8.61;100.00
37368;BME280;23240;43.210;27.910;2022-11-15T00:58:33;101922.81;;;8.48;100.00
37368;BME280;23240;43.210;27.910;2022-11-15T01:01:06;101915.31;;;8.55;100.00
37368;BME280;23240;43.210;27.910;2022-11-15T01:03:33;101905.88;;;8.65;100.00
37368;BME280;23240;43.210;27.910;2022-11-15T01:06:00;101903.63;;;8.73;100.00
37368;BME280;23240;43.210;27.910;2022-11-15T01:08:25;101900.81;;;8.77;100.00
37368;BME280;23240;43.210;27.910;2022-11-15T01:10:51;101896.41;;;8.75;100.00
37368;BME280;23240;43.210;27.910;2022-11-15T01:13:16;101906.16;;;8.77;100.00
37368;BME280;23240;43.210;27.910;2022-11-15T01:15:42;101902.38;;;8.81;100.00
37368;BME280;23240;43.210;27.910;2022-11-15T01:18:08;101897.63;;;8.86;100.00
37368;BME280;23240;43.210;27.910;2022-11-15T01:20:33;101901.41;;;8.82;100.00
37368;BME280;23240;43.210;27.910;2022-11-15T01:22:59;101900.97;;;8.73;100.00
37368;BME280;23240;43.210;27.910;2022-11-15T01:25:24;101909.84;;;8.74;100.00
37368;BME280;23240;43.210;27.910;2022-11-15T01:27:50;101905.56;;;8.71;100.00
37368;BME280;23240;43.210;27.910;2022-11-15T01:30:15;101903.03;;;8.68;100.00
37368;BME280;23240;43.210;27.910;2022-11-15T01:32:40;101899.91;;;8.60;100.00
37368;BME280;23240;43.210;27.910;2022-11-15T01:35:06;101895.88;;;8.53;100.00
37368;BME280;23240;43.210;27.910;2022-11-15T01:37:32;101898.69;;;8.50;100.00
37368;BME280;23240;43.210;27.910;2022-11-15T01:39:57;101897.69;;;8.53;100.00
37368;BME280;23240;43.210;27.910;2022-11-15T01:42:23;101900.69;;;8.46;100.00
37368;BME280;23240;43.210;27.910;2022-11-15T01:44:50;101906.81;;;8.48;100.00
37368;BME280;23240;43.210;27.910;2022-11-15T01:47:31;101895.72;;;8.56;100.00
37368;BME280;23240;43.210;27.910;2022-11-15T01:50:08;101898.81;;;8.64;100.00
37368;BME280;23240;43.210;27.910;2022-11-15T01:52:35;101896.94;;;8.66;100.00
37368;BME280;23240;43.210;27.910;2022-11-15T01:55:08;101893.47;;;8.64;100.00
37368;BME280;23240;43.210;27.910;2022-11-15T01:57:34;101890.03;;;8.62;100.00
37368;BME280;23240;43.210;27.910;2022-11-15T02:00:02;101893.41;;;8.66;100.00
37368;BME280;23240;43.210;27.910;2022-11-15T02:02:28;101884.44;;;8.67;100.00
37368;BME280;23240;43.210;27.910;2022-11-15T02:04:54;101888.31;;;8.61;100.00
37368;BME280;23240;43.210;27.910;2022-11-15T02:07:20;101883.56;;;8.66;100.00
37368;BME280;23240;43.210;27.910;2022-11-15T02:09:47;101883.97;;;8.59;100.00
37368;BME280;23240;43.210;27.910;2022-11-15T02:12:17;101884.13;;;8.56;100.00
37368;BME280;23240;43.210;27.910;2022-11-15T02:14:47;101882.97;;;8.61;100.00
37368;BME280;23240;43.210;27.910;2022-11-15T02:20:08;101887.44;;;8.61;100.00
37368;BME280;23240;43.210;27.910;2022-11-15T02:23:00;101878.75;;;8.57;100.00
37368;BME280;23240;43.210;27.910;2022-11-15T02:29:15;101881.56;;;8.54;100.00
37368;BME280;23240;43.210;27.910;2022-11-15T02:31:39;101878.13;;;8.52;100.00
37368;BME280;23240;43.210;27.910;2022-11-15T02:34:29;101874.66;;;8.50;100.00
37368;BME280;23240;43.210;27.910;2022-11-15T02:42:10;101871.50;;;8.59;100.00
37368;BME280;23240;43.210;27.910;2022-11-15T02:44:56;101869.78;;;8.58;100.00
37368;BME280;23240;43.210;27.910;2022-11-15T02:47:24;101869.31;;;8.50;100.00
37368;BME280;23240;43.210;27.910;2022-11-15T02:49:53;101865.09;;;8.46;100.00
37368;BME280;23240;43.210;27.910;2022-11-15T02:52:22;101864.78;;;8.52;100.00
37368;BME280;23240;43.210;27.910;2022-11-15T02:54:59;101860.03;;;8.57;100.00
37368;BME280;23240;43.210;27.910;2022-11-15T03:00:26;101851.31;;;8.69;100.00
37368;BME280;23240;43.210;27.910;2022-11-15T03:08:22;101852.13;;;8.71;100.00
37368;BME280;23240;43.210;27.910;2022-11-15T03:11:07;101851.00;;;8.75;100.00
37368;BME280;23240;43.210;27.910;2022-11-15T03:18:59;101846.69;;;8.57;100.00
37368;BME280;23240;43.210;27.910;2022-11-15T03:21:28;101849.00;;;8.63;100.00
37368;BME280;23240;43.210;27.910;2022-11-15T03:23:54;101835.91;;;8.59;100.00
37368;BME280;23240;43.210;27.910;2022-11-15T03:26:23;101842.72;;;8.64;100.00
37368;BME280;23240;43.210;27.910;2022-11-15T03:28:56;101834.38;;;8.70;100.00
37368;BME280;23240;43.210;27.910;2022-11-15T03:31:24;101825.06;;;8.78;100.00
37368;BME280;23240;43.210;27.910;2022-11-15T03:34:15;101828.16;;;8.86;100.00
37368;BME280;23240;43.210;27.910;2022-11-15T03:36:44;101825.50;;;8.86;100.00
37368;BME280;23240;43.210;27.910;2022-11-15T03:39:12;101822.97;;;8.83;100.00
37368;BME280;23240;43.210;27.910;2022-11-15T03:47:07;101818.34;;;8.86;100.00
37368;BME280;23240;43.210;27.910;2022-11-15T03:49:35;101811.06;;;8.88;100.00
37368;BME280;23240;43.210;27.910;2022-11-15T03:52:04;101814.22;;;8.81;100.00
37368;BME280;23240;43.210;27.910;2022-11-15T03:54:29;101809.13;;;8.76;100.00
37368;BME280;23240;43.210;27.910;2022-11-15T03:56:55;101807.31;;;8.77;100.00
37368;BME280;23240;43.210;27.910;2022-11-15T03:59:20;101808.88;;;8.81;100.00
37368;BME280;23240;43.210;27.910;2022-11-15T04:01:46;101802.66;;;8.80;100.00
37368;BME280;23240;43.210;27.910;2022-11-15T04:04:11;101808.75;;;8.82;100.00
37368;BME280;23240;43.210;27.910;2022-11-15T04:06:37;101810.31;;;8.86;100.00
37368;BME280;23240;43.210;27.910;2022-11-15T04:09:03;101801.25;;;8.89;100.00
37368;BME280;23240;43.210;27.910;2022-11-15T04:11:29;101798.19;;;8.81;100.00
37368;BME280;23240;43.210;27.910;2022-11-15T04:13:54;101805.59;;;8.75;100.00
37368;BME280;23240;43.210;27.910;2022-11-15T04:16:20;101808.88;;;8.81;100.00
37368;BME280;23240;43.210;27.910;2022-11-15T04:18:45;101801.72;;;8.81;100.00
37368;BME280;23240;43.210;27.910;2022-11-15T04:21:30;101806.63;;;8.73;100.00
37368;BME280;23240;43.210;27.910;2022-11-15T04:24:14;101820.41;;;8.65;100.00
37368;BME280;23240;43.210;27.910;2022-11-15T04:26:40;101812.84;;;8.58;100.00
37368;BME280;23240;43.210;27.910;2022-11-15T04:29:05;101812.66;;;8.61;100.00
37368;BME280;23240;43.210;27.910;2022-11-15T04:31:49;101810.66;;;8.64;100.00
37368;BME280;23240;43.210;27.910;2022-11-15T04:34:15;101804.56;;;8.62;100.00
37368;BME280;23240;43.210;27.910;2022-11-15T04:36:40;101803.00;;;8.58;100.00
37368;BME280;23240;43.210;27.910;2022-11-15T04:39:24;101797.56;;;8.60;100.00
37368;BME280;23240;43.210;27.910;2022-11-15T04:41:50;101801.44;;;8.54;100.00
37368;BME280;23240;43.210;27.910;2022-11-15T04:44:15;101798.03;;;8.52;100.00
37368;BME280;23240;43.210;27.910;2022-11-15T04:46:41;101798.63;;;8.57;100.00
37368;BME280;23240;43.210;27.910;2022-11-15T04:49:07;101806.28;;;8.63;100.00
37368;BME280;23240;43.210;27.910;2022-11-15T04:51:33;101795.44;;;8.66;100.00
37368;BME280;23240;43.210;27.910;2022-11-15T04:53:58;101795.00;;;8.58;100.00
37368;BME280;23240;43.210;27.910;2022-11-15T04:56:24;101801.97;;;8.61;100.00
37368;BME280;23240;43.210;27.910;2022-11-15T04:58:49;101800.59;;;8.54;100.00
37368;BME280;23240;43.210;27.910;2022-11-15T05:01:15;101806.53;;;8.59;100.00
37368;BME280;23240;43.210;27.910;2022-11-15T05:03:44;101803.69;;;8.62;100.00
37368;BME280;23240;43.210;27.910;2022-11-15T05:06:29;101794.63;;;8.64;100.00
37368;BME280;23240;43.210;27.910;2022-11-15T05:08:55;101796.09;;;8.70;100.00
37368;BME280;23240;43.210;27.910;2022-11-15T05:11:21;101799.81;;;8.67;100.00
37368;BME280;23240;43.210;27.910;2022-11-15T05:13:47;101794.03;;;8.59;100.00
37368;BME280;23240;43.210;27.910;2022-11-15T05:16:12;101801.97;;;8.61;100.00
37368;BME280;23240;43.210;27.910;2022-11-15T05:18:38;101799.72;;;8.69;100.00
37368;BME280;23240;43.210;27.910;2022-11-15T05:21:14;101798.00;;;8.68;100.00
37368;BME280;23240;43.210;27.910;2022-11-15T05:23:41;101802.31;;;8.70;100.00
37368;BME280;23240;43.210;27.910;2022-11-15T05:26:08;101800.06;;;8.63;100.00
37368;BME280;23240;43.210;27.910;2022-11-15T05:28:33;101809.09;;;8.60;100.00
37368;BME280;23240;43.210;27.910;2022-11-15T05:31:04;101813.00;;;8.55;100.00
37368;BME280;23240;43.210;27.910;2022-11-15T05:33:30;101807.50;;;8.58;100.00
37368;BME280;23240;43.210;27.910;2022-11-15T05:36:04;101804.72;;;8.59;100.00
37368;BME280;23240;43.210;27.910;2022-11-15T05:38:31;101809.72;;;8.65;100.00
37368;BME280;23240;43.210;27.910;2022-11-15T05:40:57;101802.59;;;8.66;100.00
37368;BME280;23240;43.210;27.910;2022-11-15T05:43:23;101810.59;;;8.66;100.00
37368;BME280;23240;43.210;27.910;2022-11-15T05:45:49;101803.44;;;8.66;100.00
37368;BME280;23240;43.210;27.910;2022-11-15T05:48:15;101797.41;;;8.63;100.00
37368;BME280;23240;43.210;27.910;2022-11-15T05:50:43;101802.50;;;8.67;100.00
37368;BME280;23240;43.210;27.910;2022-11-15T05:53:11;101797.91;;;8.69;100.00
37368;BME280;23240;43.210;27.910;2022-11-15T05:55:39;101800.25;;;8.75;100.00
37368;BME280;23240;43.210;27.910;2022-11-15T05:58:05;101801.19;;;8.74;100.00
37368;BME280;23240;43.210;27.910;2022-11-15T06:00:31;101805.91;;;8.69;100.00
37368;BME280;23240;43.210;27.910;2022-11-15T06:02:56;101805.00;;;8.70;100.00
37368;BME280;23240;43.210;27.910;2022-11-15T06:05:22;101808.53;;;8.71;100.00
37368;BME280;23240;43.210;27.910;2022-11-15T06:07:47;101805.59;;;8.75;100.00
37368;BME280;23240;43.210;27.910;2022-11-15T06:10:13;101805.66;;;8.90;100.00
37368;BME280;23240;43.210;27.910;2022-11-15T06:12:38;101804.19;;;9.00;100.00
37368;BME280;23240;43.210;27.910;2022-11-15T06:15:04;101802.69;;;9.10;100.00
37368;BME280;23240;43.210;27.910;2022-11-15T06:17:29;101802.22;;;9.18;100.00
37368;BME280;23240;43.210;27.910;2022-11-15T06:19:55;101805.00;;;9.16;100.00
37368;BME280;23240;43.210;27.910;2022-11-15T06:22:20;101801.72;;;9.11;100.00
37368;BME280;23240;43.210;27.910;2022-11-15T06:24:46;101796.00;;;9.17;100.00
37368;BME280;23240;43.210;27.910;2022-11-15T06:27:12;101796.66;;;9.37;100.00
37368;BME280;23240;43.210;27.910;2022-11-15T06:29:37;101794.38;;;9.45;100.00
37368;BME280;23240;43.210;27.910;2022-11-15T06:32:03;101791.72;;;9.45;100.00
37368;BME280;23240;43.210;27.910;2022-11-15T06:34:28;101789.88;;;9.45;100.00
37368;BME280;23240;43.210;27.910;2022-11-15T06:36:54;101795.53;;;9.55;100.00
37368;BME280;23240;43.210;27.910;2022-11-15T06:39:19;101792.59;;;9.60;100.00
37368;BME280;23240;43.210;27.910;2022-11-15T06:41:45;101794.03;;;9.65;100.00
37368;BME280;23240;43.210;27.910;2022-11-15T06:44:11;101788.56;;;9.67;100.00
37368;BME280;23240;43.210;27.910;2022-11-15T06:46:36;101787.94;;;9.63;100.00
37368;BME280;23240;43.210;27.910;2022-11-15T06:49:02;101785.72;;;9.70;100.00
37368;BME280;23240;43.210;27.910;2022-11-15T06:51:27;101786.97;;;9.78;100.00
37368;BME280;23240;43.210;27.910;2022-11-15T06:53:52;101787.94;;;9.92;100.00
37368;BME280;23240;43.210;27.910;2022-11-15T06:56:18;101785.63;;;10.00;100.00
37368;BME280;23240;43.210;27.910;2022-11-15T06:58:43;101785.34;;;9.90;100.00
37368;BME280;23240;43.210;27.910;2022-11-15T07:01:11;101789.84;;;9.90;100.00
37368;BME280;23240;43.210;27.910;2022-11-15T07:03:41;101794.06;;;9.94;100.00
37368;BME280;23240;43.210;27.910;2022-11-15T07:06:07;101792.13;;;9.96;100.00
37368;BME280;23240;43.210;27.910;2022-11-15T07:08:34;101793.66;;;9.86;100.00
37368;BME280;23240;43.210;27.910;2022-11-15T07:11:02;101794.16;;;9.92;100.00
37368;BME280;23240;43.210;27.910;2022-11-15T07:13:29;101800.53;;;9.90;100.00
37368;BME280;23240;43.210;27.910;2022-11-15T07:15:58;101790.22;;;9.84;100.00
37368;BME280;23240;43.210;27.910;2022-11-15T07:18:23;101789.94;;;9.88;100.00
37368;BME280;23240;43.210;27.910;2022-11-15T07:20:49;101790.06;;;9.87;100.00
37368;BME280;23240;43.210;27.910;2022-11-15T07:23:14;101782.03;;;9.87;100.00
37368;BME280;23240;43.210;27.910;2022-11-15T07:25:40;101786.59;;;9.85;100.00
37368;BME280;23240;43.210;27.910;2022-11-15T07:28:05;101776.09;;;9.67;100.00
37368;BME280;23240;43.210;27.910;2022-11-15T07:30:31;101788.09;;;9.60;100.00
37368;BME280;23240;43.210;27.910;2022-11-15T07:32:58;101792.78;;;9.71;100.00
37368;BME280;23240;43.210;27.910;2022-11-15T07:35:25;101784.13;;;9.67;100.00
37368;BME280;23240;43.210;27.910;2022-11-15T07:38:01;101783.88;;;9.56;100.00
37368;BME280;23240;43.210;27.910;2022-11-15T07:40:29;101792.00;;;9.55;100.00
37368;BME280;23240;43.210;27.910;2022-11-15T07:43:04;101785.63;;;9.71;100.00
37368;BME280;23240;43.210;27.910;2022-11-15T07:45:30;101786.31;;;9.89;100.00
37368;BME280;23240;43.210;27.910;2022-11-15T07:47:56;101775.50;;;9.91;100.00
37368;BME280;23240;43.210;27.910;2022-11-15T07:50:23;101775.50;;;9.91;100.00
37368;BME280;23240;43.210;27.910;2022-11-15T07:52:56;101776.00;;;9.97;100.00
37368;BME280;23240;43.210;27.910;2022-11-15T07:55:23;101775.78;;;10.00;100.00
37368;BME280;23240;43.210;27.910;2022-11-15T07:57:48;101772.81;;;10.05;100.00
37368;BME280;23240;43.210;27.910;2022-11-15T08:00:15;101773.88;;;10.02;100.00
37368;BME280;23240;43.210;27.910;2022-11-15T08:02:40;101785.84;;;9.97;100.00
37368;BME280;23240;43.210;27.910;2022-11-15T08:05:06;101783.81;;;9.86;100.00
37368;BME280;23240;43.210;27.910;2022-11-15T08:07:32;101781.63;;;9.78;100.00
37368;BME280;23240;43.210;27.910;2022-11-15T08:09:58;101783.44;;;9.78;100.00
37368;BME280;23240;43.210;27.910;2022-11-15T08:12:24;101785.06;;;9.81;100.00
37368;BME280;23240;43.210;27.910;2022-11-15T08:14:49;101787.56;;;9.84;100.00
37368;BME280;23240;43.210;27.910;2022-11-15T08:17:15;101782.88;;;9.73;100.00
37368;BME280;23240;43.210;27.910;2022-11-15T08:19:41;101782.75;;;9.60;100.00
37368;BME280;23240;43.210;27.910;2022-11-15T08:22:07;101781.59;;;9.50;100.00
37368;BME280;23240;43.210;27.910;2022-11-15T08:24:32;101789.50;;;9.51;100.00
37368;BME280;23240;43.210;27.910;2022-11-15T08:26:59;101784.28;;;9.64;100.00
37368;BME280;23240;43.210;27.910;2022-11-15T08:29:24;101786.31;;;9.75;100.00
37368;BME280;23240;43.210;27.910;2022-11-15T08:31:50;101776.44;;;9.75;100.00
37368;BME280;23240;43.210;27.910;2022-11-15T08:34:15;101778.09;;;9.78;100.00
37368;BME280;23240;43.210;27.910;2022-11-15T08:36:41;101774.28;;;9.82;100.00
37368;BME280;23240;43.210;27.910;2022-11-15T08:39:10;101771.38;;;9.85;100.00
37368;BME280;23240;43.210;27.910;2022-11-15T08:41:37;101775.69;;;9.73;100.00
37368;BME280;23240;43.210;27.910;2022-11-15T08:44:02;101774.56;;;9.77;100.00
37368;BME280;23240;43.210;27.910;2022-11-15T08:46:28;101776.09;;;9.82;100.00
37368;BME280;23240;43.210;27.910;2022-11-15T08:48:53;101759.25;;;9.94;100.00
37368;BME280;23240;43.210;27.910;2022-11-15T08:51:19;101753.16;;;10.06;100.00
37368;BME280;23240;43.210;27.910;2022-11-15T08:53:45;101753.22;;;10.04;100.00
37368;BME280;23240;43.210;27.910;2022-11-15T08:56:12;101755.03;;;10.04;100.00
37368;BME280;23240;43.210;27.910;2022-11-15T08:58:38;101745.59;;;9.98;100.00
37368;BME280;23240;43.210;27.910;2022-11-15T09:01:04;101740.91;;;10.02;100.00
37368;BME280;23240;43.210;27.910;2022-11-15T09:03:31;101732.19;;;9.98;100.00
37368;BME280;23240;43.210;27.910;2022-11-15T09:05:57;101735.34;;;10.05;100.00
37368;BME280;23240;43.210;27.910;2022-11-15T09:08:25;101727.41;;;10.03;100.00
37368;BME280;23240;43.210;27.910;2022-11-15T09:10:51;101731.06;;;10.02;100.00
37368;BME280;23240;43.210;27.910;2022-11-15T09:13:17;101725.97;;;10.12;100.00
37368;BME280;23240;43.210;27.910;2022-11-15T09:15:43;101731.13;;;10.15;100.00
37368;BME280;23240;43.210;27.910;2022-11-15T09:18:08;101722.03;;;10.18;100.00
37368;BME280;23240;43.210;27.910;2022-11-15T09:20:34;101719.06;;;10.22;100.00
37368;BME280;23240;43.210;27.910;2022-11-15T09:23:03;101716.94;;;10.42;100.00
37368;BME280;23240;43.210;27.910;2022-11-15T09:25:29;101711.72;;;10.53;100.00
37368;BME280;23240;43.210;27.910;2022-11-15T09:27:55;101707.34;;;10.52;100.00
37368;BME280;23240;43.210;27.910;2022-11-15T09:30:20;101701.78;;;10.55;100.00
37368;BME280;23240;43.210;27.910;2022-11-15T09:32:46;101706.19;;;10.56;100.00
37368;BME280;23240;43.210;27.910;2022-11-15T09:35:13;101701.94;;;10.66;100.00
37368;BME280;23240;43.210;27.910;2022-11-15T09:37:38;101693.81;;;10.80;100.00
37368;BME280;23240;43.210;27.910;2022-11-15T09:40:04;101690.09;;;10.96;100.00
37368;BME280;23240;43.210;27.910;2022-11-15T09:45:23;101686.78;;;11.05;100.00
37368;BME280;23240;43.210;27.910;2022-11-15T09:50:54;101686.69;;;11.06;100.00
37368;BME280;23240;43.210;27.910;2022-11-15T09:53:42;101685.41;;;11.12;100.00
37368;BME280;23240;43.210;27.910;2022-11-15T09:56:22;101684.31;;;11.02;100.00
37368;BME280;23240;43.210;27.910;2022-11-15T10:04:09;101664.72;;;11.27;100.00
37368;BME280;23240;43.210;27.910;2022-11-15T10:06:38;101671.91;;;11.52;100.00
37368;BME280;23240;43.210;27.910;2022-11-15T10:09:27;101661.91;;;11.67;100.00
37368;BME280;23240;43.210;27.910;2022-11-15T10:11:54;101660.28;;;11.64;100.00
37368;BME280;23240;43.210;27.910;2022-11-15T10:14:23;101664.78;;;11.76;100.00
37368;BME280;23240;43.210;27.910;2022-11-15T10:22:16;101643.41;;;11.88;100.00
37368;BME280;23240;43.210;27.910;2022-11-15T10:24:46;101633.19;;;11.93;100.00
37368;BME280;23240;43.210;27.910;2022-11-15T10:27:16;101628.34;;;11.98;100.00
37368;BME280;23240;43.210;27.910;2022-11-15T10:29:47;101623.13;;;11.83;100.00
37368;BME280;23240;43.210;27.910;2022-11-15T10:32:15;101625.25;;;11.78;100.00
37368;BME280;23240;43.210;27.910;2022-11-15T10:34:41;101625.91;;;11.95;100.00
37368;BME280;23240;43.210;27.910;2022-11-15T10:37:07;101617.72;;;11.96;100.00
37368;BME280;23240;43.210;27.910;2022-11-15T10:39:33;101615.75;;;11.98;100.00
37368;BME280;23240;43.210;27.910;2022-11-15T10:42:15;101610.56;;;12.08;100.00
37368;BME280;23240;43.210;27.910;2022-11-15T10:44:43;101613.84;;;12.00;100.00
37368;BME280;23240;43.210;27.910;2022-11-15T10:47:31;101608.50;;;11.88;100.00
37368;BME280;23240;43.210;27.910;2022-11-15T10:50:07;101605.81;;;11.88;100.00
37368;BME280;23240;43.210;27.910;2022-11-15T10:52:34;101601.94;;;11.92;100.00
37368;BME280;23240;43.210;27.910;2022-11-15T10:57:52;101598.19;;;11.94;100.00
37368;BME280;23240;43.210;27.910;2022-11-15T11:08:00;101584.56;;;12.08;100.00
37368;BME280;23240;43.210;27.910;2022-11-15T11:10:27;101570.59;;;12.16;100.00
37368;BME280;23240;43.210;27.910;2022-11-15T11:12:53;101566.00;;;12.29;100.00
37368;BME280;23240;43.210;27.910;2022-11-15T11:15:18;101560.78;;;12.39;100.00
37368;BME280;23240;43.210;27.910;2022-11-15T11:18:07;101555.50;;;12.38;100.00
37368;BME280;23240;43.210;27.910;2022-11-15T11:20:40;101546.38;;;12.40;100.00
37368;BME280;23240;43.210;27.910;2022-11-15T11:23:18;101545.31;;;12.43;100.00
37368;BME280;23240;43.210;27.910;2022-11-15T11:26:05;101544.84;;;12.60;100.00
37368;BME280;23240;43.210;27.910;2022-11-15T11:28:39;101537.53;;;12.73;100.00
37368;BME280;23240;43.210;27.910;2022-11-15T11:34:49;101530.00;;;13.01;100.00
37368;BME280;23240;43.210;27.910;2022-11-15T11:37:03;101527.47;;;13.22;100.00
37368;BME280;23240;43.210;27.910;2022-11-15T11:45:03;101511.03;;;13.02;100.00
37368;BME280;23240;43.210;27.910;2022-11-15T11:47:38;101515.31;;;13.05;100.00
37368;BME280;23240;43.210;27.910;2022-11-15T11:50:15;101510.81;;;13.05;100.00
37368;BME280;23240;43.210;27.910;2022-11-15T11:52:56;101509.81;;;12.95;100.00
37368;BME280;23240;43.210;27.910;2022-11-15T11:55:32;101504.31;;;12.97;100.00
37368;BME280;23240;43.210;27.910;2022-11-15T11:58:21;101502.13;;;13.02;100.00
37368;BME280;23240;43.210;27.910;2022-11-15T12:00:54;101500.91;;;13.06;100.00
37368;BME280;23240;43.210;27.910;2022-11-15T12:03:38;101491.09;;;13.05;100.00
37368;BME280;23240;43.210;27.910;2022-11-15T12:14:01;101482.53;;;13.45;100.00
37368;BME280;23240;43.210;27.910;2022-11-15T12:16:31;101482.59;;;13.66;100.00
37368;BME280;23240;43.210;27.910;2022-11-15T12:19:01;101465.84;;;13.62;100.00
37368;BME280;23240;43.210;27.910;2022-11-15T12:24:32;101471.63;;;13.89;100.00
37368;BME280;23240;43.210;27.910;2022-11-15T12:31:58;101451.59;;;14.24;100.00
37368;BME280;23240;43.210;27.910;2022-11-15T12:36:54;101445.91;;;14.18;100.00
37368;BME280;23240;43.210;27.910;2022-11-15T12:39:21;101444.69;;;14.10;100.00
37368;BME280;23240;43.210;27.910;2022-11-15T12:59:51;101420.00;;;14.05;100.00
37368;BME280;23240;43.210;27.910;2022-11-15T13:02:22;101418.16;;;14.06;100.00
37368;BME280;23240;43.210;27.910;2022-11-15T13:04:50;101423.69;;;13.83;100.00
37368;BME280;23240;43.210;27.910;2022-11-15T13:10:07;101415.78;;;13.71;100.00
37368;BME280;23240;43.210;27.910;2022-11-15T13:22:51;101403.97;;;13.51;100.00
37368;BME280;23240;43.210;27.910;2022-11-15T13:28:01;101389.28;;;13.55;100.00
37368;BME280;23240;43.210;27.910;2022-11-15T13:30:30;101388.53;;;13.53;100.00
37368;BME280;23240;43.210;27.910;2022-11-15T13:32:59;101386.38;;;13.47;100.00
37368;BME280;23240;43.210;27.910;2022-11-15T13:35:28;101394.50;;;13.35;100.00
37368;BME280;23240;43.210;27.910;2022-11-15T13:37:56;101393.28;;;13.28;100.00
37368;BME280;23240;43.210;27.910;2022-11-15T13:40:34;101391.06;;;13.33;100.00
37368;BME280;23240;43.210;27.910;2022-11-15T13:46:16;101380.06;;;13.36;100.00
37368;BME280;23240;43.210;27.910;2022-11-15T13:48:43;101384.59;;;13.36;100.00
37368;BME280;23240;43.210;27.910;2022-11-15T13:51:47;101379.72;;;13.30;100.00
37368;BME280;23240;43.210;27.910;2022-11-15T13:54:19;101379.84;;;13.28;100.00
37368;BME280;23240;43.210;27.910;2022-11-15T13:57:03;101384.38;;;13.17;100.00
37368;BME280;23240;43.210;27.910;2022-11-15T13:59:36;101376.19;;;13.07;100.00
37368;BME280;23240;43.210;27.910;2022-11-15T14:02:14;101386.72;;;12.99;100.00
37368;BME280;23240;43.210;27.910;2022-11-15T14:04:55;101369.75;;;12.76;100.00
37368;BME280;23240;43.210;27.910;2022-11-15T14:07:23;101378.31;;;12.70;100.00
37368;BME280;23240;43.210;27.910;2022-11-15T14:09:49;101371.63;;;12.64;100.00
37368;BME280;23240;43.210;27.910;2022-11-15T14:12:26;101370.38;;;12.57;100.00
37368;BME280;23240;43.210;27.910;2022-11-15T14:14:52;101361.72;;;12.42;100.00
37368;BME280;23240;43.210;27.910;2022-11-15T14:17:33;101364.53;;;12.41;100.00
37368;BME280;23240;43.210;27.910;2022-11-15T14:19:59;101364.03;;;12.35;100.00
37368;BME280;23240;43.210;27.910;2022-11-15T14:22:26;101359.16;;;12.41;100.00
37368;BME280;23240;43.210;27.910;2022-11-15T14:27:31;101351.22;;;12.39;100.00
37368;BME280;23240;43.210;27.910;2022-11-15T14:29:57;101346.72;;;12.40;100.00
37368;BME280;23240;43.210;27.910;2022-11-15T14:32:30;101347.69;;;12.39;100.00
37368;BME280;23240;43.210;27.910;2022-11-15T14:35:02;101340.84;;;12.34;100.00
37368;BME280;23240;43.210;27.910;2022-11-15T14:37:33;101340.38;;;12.29;100.00
37368;BME280;23240;43.210;27.910;2022-11-15T14:40:01;101327.91;;;12.28;100.00
37368;BME280;23240;43.210;27.910;2022-11-15T14:42:27;101324.13;;;12.20;100.00
37368;BME280;23240;43.210;27.910;2022-11-15T14:44:53;101330.84;;;12.14;100.00
37368;BME280;23240;43.210;27.910;2022-11-15T14:47:18;101316.78;;;12.11;100.00